Time;durP1;ratioP1;P1;durP2;ratioP2;P2;SDS_P1;SDS_P2;PMS_P1;PMS_P2;Temp;Humidity;BMP_temperature;BMP_pressure;BME280_temperature;BME280_humidity;BME280_pressure;Samples;Min_cycle;Max_cycle;Signal;HPM_P1;HPM_P2
2021/03/02 00:00:23;;;;;;;43.95;17.85;;;4.80;93.80;;;;;;4959661;28;20078;-89
2021/03/02 00:02:49;;;;;;;41.42;18.52;;;4.80;93.90;;;;;;4999204;28;20046;-89
2021/03/02 00:05:14;;;;;;;47.30;18.27;;;4.70;94.00;;;;;;4961550;28;20035;-89
2021/03/02 00:07:40;;;;;;;45.30;18.02;;;4.70;94.30;;;;;;5000707;28;20035;-88
2021/03/02 00:10:08;;;;;;;43.65;17.38;;;4.70;94.30;;;;;;4978455;28;20038;-88
2021/03/02 00:12:35;;;;;;;47.72;17.35;;;4.60;94.40;;;;;;4973892;28;20039;-89
2021/03/02 00:15:02;;;;;;;44.45;17.88;;;4.70;94.60;;;;;;4970607;28;20049;-89
2021/03/02 00:17:45;;;;;;;46.85;18.33;;;4.70;94.50;;;;;;4959488;28;20076;-89
2021/03/02 00:20:16;;;;;;;51.20;19.23;;;4.70;94.30;;;;;;4958762;28;20043;-89
2021/03/02 00:23:07;;;;;;;57.83;19.77;;;4.70;94.30;;;;;;4953797;28;20031;-88
2021/03/02 00:25:37;;;;;;;46.60;18.27;;;4.70;94.30;;;;;;5026553;28;20039;-89
2021/03/02 00:28:08;;;;;;;57.35;20.08;;;4.70;94.20;;;;;;4965707;28;20101;-89
2021/03/02 00:30:34;;;;;;;47.55;19.50;;;4.70;94.20;;;;;;4962077;28;20618;-90
2021/03/02 00:33:03;;;;;;;58.45;20.88;;;4.80;94.20;;;;;;4962952;28;20165;-89
2021/03/02 00:35:29;;;;;;;60.35;18.58;;;4.80;94.20;;;;;;4961127;28;20085;-90
2021/03/02 00:37:54;;;;;;;58.63;18.15;;;4.80;94.20;;;;;;5055801;28;20412;-88
2021/03/02 00:40:20;;;;;;;53.45;18.13;;;4.80;94.10;;;;;;4989742;28;20073;-88
2021/03/02 00:42:46;;;;;;;47.70;16.02;;;4.80;94.10;;;;;;4967089;28;20116;-89
2021/03/02 00:45:12;;;;;;;42.13;16.08;;;4.80;94.00;;;;;;4992405;28;20038;-88
2021/03/02 00:47:38;;;;;;;44.50;16.77;;;4.70;93.90;;;;;;4958826;28;20110;-89
2021/03/02 00:50:05;;;;;;;41.75;15.95;;;4.70;94.10;;;;;;4981079;28;20131;-89
2021/03/02 00:52:30;;;;;;;41.38;15.73;;;4.70;93.90;;;;;;4958376;28;20047;-88
2021/03/02 00:54:56;;;;;;;44.92;17.70;;;4.70;94.00;;;;;;5052397;28;20035;-89
2021/03/02 00:57:22;;;;;;;42.40;17.83;;;4.70;94.00;;;;;;4954147;28;20218;-89
2021/03/02 00:59:47;;;;;;;47.28;16.75;;;4.70;94.10;;;;;;4970548;28;20118;-90
2021/03/02 01:02:12;;;;;;;42.28;16.52;;;4.80;94.20;;;;;;4990655;28;20057;-89
2021/03/02 01:04:38;;;;;;;55.25;17.70;;;4.80;94.10;;;;;;4974491;28;20304;-89
2021/03/02 01:07:04;;;;;;;57.05;18.40;;;4.70;94.10;;;;;;4975352;28;20035;-88
2021/03/02 01:09:30;;;;;;;53.30;18.95;;;4.80;94.10;;;;;;4970791;28;20070;-88
2021/03/02 01:11:56;;;;;;;44.80;16.30;;;4.80;94.00;;;;;;4991843;28;20081;-88
2021/03/02 01:14:21;;;;;;;49.08;17.48;;;4.80;94.10;;;;;;4961829;28;20443;-90
2021/03/02 01:16:47;;;;;;;50.83;16.15;;;4.80;94.10;;;;;;4974205;28;20053;-89
2021/03/02 01:19:12;;;;;;;67.95;17.63;;;4.80;94.10;;;;;;4973009;28;20078;-89
2021/03/02 01:21:38;;;;;;;55.90;15.88;;;4.70;94.00;;;;;;4960846;28;20104;-90
2021/03/02 01:24:03;;;;;;;37.05;16.23;;;4.70;94.00;;;;;;4972679;28;20400;-89
2021/03/02 01:26:29;;;;;;;78.20;17.02;;;4.70;94.10;;;;;;4960157;28;20039;-90
2021/03/02 01:28:55;;;;;;;47.63;16.77;;;4.70;94.20;;;;;;5053004;28;20050;-90
2021/03/02 01:31:20;;;;;;;63.92;16.27;;;4.70;94.20;;;;;;4961357;28;20043;-89
2021/03/02 01:33:45;;;;;;;57.97;17.05;;;4.70;94.40;;;;;;4994807;28;20058;-88
2021/03/02 01:36:11;;;;;;;50.15;15.43;;;4.70;94.30;;;;;;4961345;28;20043;-88
2021/03/02 01:38:37;;;;;;;48.03;15.80;;;4.70;94.30;;;;;;4961787;28;20405;-88
2021/03/02 01:41:02;;;;;;;35.40;15.50;;;4.60;94.20;;;;;;5048169;28;20043;-89
2021/03/02 01:43:28;;;;;;;30.15;14.00;;;4.50;94.20;;;;;;4992213;28;20039;-88
2021/03/02 01:45:53;;;;;;;37.55;14.63;;;4.40;94.20;;;;;;4964915;28;20039;-90
2021/03/02 01:48:19;;;;;;;30.30;14.25;;;4.40;94.20;;;;;;4965964;28;20586;-89
2021/03/02 01:50:45;;;;;;;29.48;14.68;;;4.40;94.30;;;;;;5040785;28;20100;-89
2021/03/02 01:53:10;;;;;;;37.67;16.08;;;4.40;94.30;;;;;;4962378;28;20038;-89
2021/03/02 01:55:36;;;;;;;27.60;14.07;;;4.40;94.40;;;;;;4964820;28;20285;-89
2021/03/02 01:58:01;;;;;;;40.40;14.45;;;4.30;94.40;;;;;;5048654;28;20046;-89
2021/03/02 02:00:36;;;;;;;28.48;14.82;;;4.40;94.50;;;;;;4966004;28;20054;-90
2021/03/02 02:03:31;;;;;;;34.15;14.63;;;4.40;94.50;;;;;;4988924;28;20039;-90
2021/03/02 02:06:30;;;;;;;32.03;15.77;;;4.40;94.50;;;;;;4962007;28;20046;-89
2021/03/02 02:09:11;;;;;;;34.15;14.40;;;4.40;94.60;;;;;;4960417;28;20070;-88
2021/03/02 02:12:01;;;;;;;27.13;14.05;;;4.30;94.60;;;;;;4996465;28;20134;-89
2021/03/02 02:14:42;;;;;;;27.75;13.82;;;4.30;94.70;;;;;;4966841;28;20039;-88
2021/03/02 02:17:22;;;;;;;28.73;14.45;;;4.30;94.60;;;;;;4969183;28;20036;-88
2021/03/02 02:19:53;;;;;;;26.48;13.40;;;4.40;94.70;;;;;;4972297;28;20096;-88
2021/03/02 02:22:40;;;;;;;30.55;14.70;;;4.40;94.60;;;;;;4966384;28;20051;-88
2021/03/02 02:25:21;;;;;;;35.85;14.48;;;4.40;94.60;;;;;;4962624;28;20034;-89
2021/03/02 02:27:51;;;;;;;39.38;14.40;;;4.40;94.60;;;;;;4968352;28;20423;-88
2021/03/02 02:30:17;;;;;;;35.38;15.55;;;4.40;94.60;;;;;;4969065;28;20050;-89
2021/03/02 02:32:45;;;;;;;38.70;14.50;;;4.40;94.60;;;;;;4967737;28;20375;-88
2021/03/02 02:35:12;;;;;;;38.28;14.40;;;4.40;94.60;;;;;;4973578;28;20117;-88
2021/03/02 02:37:39;;;;;;;34.15;14.40;;;4.40;94.60;;;;;;4972695;28;20038;-86
2021/03/02 02:40:06;;;;;;;26.23;13.18;;;4.40;94.60;;;;;;4969283;28;20042;-88
2021/03/02 02:42:32;;;;;;;35.05;14.75;;;4.40;94.60;;;;;;4972737;28;20070;-88
2021/03/02 02:44:58;;;;;;;32.72;14.75;;;4.40;94.60;;;;;;4964583;28;20095;-88
2021/03/02 02:47:26;;;;;;;29.75;14.25;;;4.40;94.60;;;;;;4962390;28;20384;-88
2021/03/02 02:49:52;;;;;;;32.40;15.15;;;4.40;94.60;;;;;;4990901;28;20053;-89
2021/03/02 02:52:19;;;;;;;31.77;13.48;;;4.50;94.60;;;;;;4959932;28;20296;-89
2021/03/02 02:54:46;;;;;;;32.22;13.90;;;4.50;94.60;;;;;;4988553;28;20054;-89
2021/03/02 02:57:17;;;;;;;33.70;13.68;;;4.50;94.60;;;;;;4969963;28;20121;-90
2021/03/02 02:59:46;;;;;;;34.00;13.65;;;4.40;94.60;;;;;;4965718;28;20123;-88
2021/03/02 03:02:19;;;;;;;35.33;13.18;;;4.40;94.50;;;;;;4970146;28;20042;-88
2021/03/02 03:05:05;;;;;;;41.67;12.80;;;4.30;94.50;;;;;;4963061;28;20039;-89
2021/03/02 03:07:40;;;;;;;25.00;12.63;;;4.30;94.50;;;;;;4968208;28;20039;-89
2021/03/02 03:10:10;;;;;;;27.88;12.60;;;4.30;94.60;;;;;;5001770;28;20081;-89
2021/03/02 03:12:47;;;;;;;36.63;13.57;;;4.20;94.70;;;;;;4967836;28;20316;-89
2021/03/02 03:15:15;;;;;;;29.95;13.10;;;4.30;94.80;;;;;;4968483;28;20035;-90
2021/03/02 03:17:49;;;;;;;23.67;12.98;;;4.20;94.80;;;;;;4963401;28;20042;-88
2021/03/02 03:20:15;;;;;;;28.95;13.32;;;4.30;94.80;;;;;;4997102;28;20047;-89
2021/03/02 03:22:41;;;;;;;46.28;12.85;;;4.30;94.80;;;;;;5047001;28;20050;-88
2021/03/02 03:25:09;;;;;;;30.08;13.07;;;4.30;94.80;;;;;;4966646;28;20500;-90
2021/03/02 03:27:38;;;;;;;34.10;13.48;;;4.30;94.80;;;;;;4963998;28;20204;-89
2021/03/02 03:30:04;;;;;;;29.88;13.65;;;4.30;94.80;;;;;;4965889;28;20420;-90
2021/03/02 03:32:31;;;;;;;26.42;13.15;;;4.30;94.80;;;;;;4951115;28;20103;-88
2021/03/02 03:34:59;;;;;;;32.97;12.32;;;4.30;94.80;;;;;;4962445;28;20133;-90
2021/03/02 03:37:25;;;;;;;23.83;11.35;;;4.30;94.80;;;;;;4956588;28;20174;-87
2021/03/02 03:39:50;;;;;;;20.95;11.80;;;4.30;94.70;;;;;;4972407;28;20154;-88
2021/03/02 03:42:16;;;;;;;30.63;12.52;;;4.20;94.70;;;;;;4966802;28;20050;-88
2021/03/02 03:44:41;;;;;;;30.48;12.55;;;4.20;94.80;;;;;;4959884;28;20035;-88
2021/03/02 03:47:07;;;;;;;35.28;11.82;;;4.20;94.80;;;;;;4970522;28;20384;-88
2021/03/02 03:49:32;;;;;;;36.03;13.70;;;4.20;94.80;;;;;;4976199;28;20062;-88
2021/03/02 03:51:59;;;;;;;47.53;11.50;;;4.10;94.90;;;;;;4965338;28;20035;-88
2021/03/02 03:54:28;;;;;;;21.83;12.45;;;4.10;94.90;;;;;;4965348;28;20095;-88
2021/03/02 03:56:54;;;;;;;25.67;11.90;;;4.10;94.90;;;;;;4988956;28;20043;-88
2021/03/02 03:59:23;;;;;;;32.55;11.18;;;4.10;95.00;;;;;;4954459;28;20125;-88
2021/03/02 04:01:49;;;;;;;35.28;11.68;;;4.10;95.00;;;;;;4972815;28;20042;-88
2021/03/02 04:04:15;;;;;;;23.80;12.32;;;4.10;94.90;;;;;;4958738;28;20125;-89
2021/03/02 04:06:41;;;;;;;27.70;13.07;;;4.10;94.90;;;;;;4965950;28;20074;-90
2021/03/02 04:09:06;;;;;;;53.30;13.50;;;4.10;94.80;;;;;;4963986;28;20042;-90
2021/03/02 04:11:35;;;;;;;37.00;12.90;;;4.10;94.80;;;;;;4967004;28;20607;-90
2021/03/02 04:14:01;;;;;;;35.60;12.65;;;4.10;94.90;;;;;;4972188;28;20076;-89
2021/03/02 04:16:27;;;;;;;42.60;13.02;;;4.10;95.00;;;;;;4973355;28;20074;-89
2021/03/02 04:18:52;;;;;;;71.88;13.68;;;4.10;95.00;;;;;;4977806;28;20039;-88
2021/03/02 04:21:18;;;;;;;50.55;11.32;;;4.10;95.00;;;;;;4970251;28;20039;-88
2021/03/02 04:23:44;;;;;;;39.83;12.52;;;4.10;94.90;;;;;;4962293;28;20409;-87
2021/03/02 04:26:09;;;;;;;38.65;11.27;;;4.20;94.80;;;;;;4969924;28;20047;-88
2021/03/02 04:28:35;;;;;;;46.97;12.07;;;4.10;94.80;;;;;;4978775;28;20051;-88
2021/03/02 04:31:01;;;;;;;23.73;11.73;;;4.10;94.80;;;;;;4960016;28;20043;-88
2021/03/02 04:33:27;;;;;;;42.15;11.68;;;4.10;94.80;;;;;;4961340;28;20058;-89
2021/03/02 04:35:52;;;;;;;42.92;10.98;;;4.10;94.90;;;;;;4966547;28;20051;-88
2021/03/02 04:38:19;;;;;;;32.50;11.52;;;4.20;94.90;;;;;;4962464;28;20407;-89
2021/03/02 04:40:44;;;;;;;29.85;11.63;;;4.20;94.80;;;;;;4960450;28;20062;-89
2021/03/02 04:43:10;;;;;;;32.17;11.68;;;4.20;94.90;;;;;;4958935;28;21390;-89
2021/03/02 04:45:36;;;;;;;67.13;11.80;;;4.10;94.80;;;;;;4964081;28;20081;-89
2021/03/02 04:48:02;;;;;;;44.28;10.98;;;4.20;94.80;;;;;;4950999;28;20345;-89
2021/03/02 04:50:29;;;;;;;36.05;12.10;;;4.20;94.80;;;;;;4960657;28;20419;-87
2021/03/02 04:52:54;;;;;;;55.97;12.60;;;4.20;94.80;;;;;;4964208;28;20107;-88
2021/03/02 04:55:20;;;;;;;46.70;11.27;;;4.20;94.80;;;;;;4964267;28;20698;-88
2021/03/02 04:57:45;;;;;;;33.97;11.25;;;4.20;94.80;;;;;;5048610;28;20047;-89
2021/03/02 05:00:11;;;;;;;35.25;13.38;;;4.20;94.80;;;;;;4961021;28;20108;-89
2021/03/02 05:02:37;;;;;;;20.23;11.65;;;4.20;95.10;;;;;;4972241;28;20111;-89
2021/03/02 05:05:04;;;;;;;31.58;11.63;;;4.30;94.90;;;;;;4970951;28;20126;-88
2021/03/02 05:07:29;;;;;;;27.02;12.38;;;4.30;94.90;;;;;;4970371;28;20542;-89
2021/03/02 05:09:55;;;;;;;22.67;12.52;;;4.30;94.90;;;;;;4965801;28;20130;-88
2021/03/02 05:12:21;;;;;;;28.38;11.77;;;4.30;94.80;;;;;;4968818;28;20413;-87
2021/03/02 05:14:46;;;;;;;25.42;11.70;;;4.40;94.80;;;;;;4966041;28;20074;-88
2021/03/02 05:17:12;;;;;;;28.33;12.30;;;4.30;94.80;;;;;;4960802;28;20412;-88
2021/03/02 05:19:38;;;;;;;56.17;12.02;;;4.30;94.70;;;;;;4963394;28;20050;-86
2021/03/02 05:22:04;;;;;;;63.47;11.25;;;4.30;94.60;;;;;;5047691;28;20339;-87
2021/03/02 05:24:29;;;;;;;46.13;12.07;;;4.30;94.60;;;;;;4960198;28;20039;-88
2021/03/02 05:26:55;;;;;;;25.02;12.07;;;4.30;94.60;;;;;;4964257;28;20045;-89
2021/03/02 05:29:20;;;;;;;28.80;11.63;;;4.30;94.70;;;;;;5052829;28;20125;-88
2021/03/02 05:31:46;;;;;;;26.48;11.25;;;4.30;94.70;;;;;;4967382;28;20039;-87
2021/03/02 05:34:12;;;;;;;33.42;11.63;;;4.30;94.70;;;;;;5051802;28;21458;-89
2021/03/02 05:36:38;;;;;;;37.78;11.65;;;4.30;94.70;;;;;;4959025;28;20177;-86
2021/03/02 05:39:04;;;;;;;42.15;11.00;;;4.30;94.70;;;;;;4961280;28;20125;-89
2021/03/02 05:41:30;;;;;;;24.92;11.68;;;4.30;94.70;;;;;;4962575;28;20047;-88
2021/03/02 05:43:56;;;;;;;50.80;11.95;;;4.30;94.60;;;;;;4961523;28;20113;-88
2021/03/02 05:46:23;;;;;;;30.60;11.90;;;4.20;94.60;;;;;;4960072;28;20038;-88
2021/03/02 05:48:48;;;;;;;31.77;11.23;;;4.30;94.70;;;;;;4956026;28;20194;-89
2021/03/02 05:51:16;;;;;;;22.65;11.27;;;4.20;94.60;;;;;;4970695;28;20129;-87
2021/03/02 05:53:42;;;;;;;24.33;10.82;;;4.30;94.60;;;;;;4962772;28;20049;-88
2021/03/02 05:56:08;;;;;;;42.55;11.15;;;4.20;94.70;;;;;;4961624;28;20047;-89
2021/03/02 05:58:34;;;;;;;23.00;11.32;;;4.20;94.70;;;;;;4995686;28;20124;-89
2021/03/02 06:01:00;;;;;;;33.42;12.27;;;4.30;94.80;;;;;;4968054;28;20787;-88
2021/03/02 06:03:25;;;;;;;41.80;11.65;;;4.20;94.70;;;;;;4965781;28;20075;-89
2021/03/02 06:05:51;;;;;;;23.38;11.00;;;4.20;94.80;;;;;;4961256;28;20038;-86
2021/03/02 06:08:17;;;;;;;40.05;11.07;;;4.20;94.80;;;;;;4960007;28;20396;-88
2021/03/02 06:10:42;;;;;;;31.45;10.98;;;4.20;94.80;;;;;;4962193;28;20616;-89
2021/03/02 06:13:08;;;;;;;20.60;10.00;;;4.20;94.80;;;;;;4961296;28;20543;-88
2021/03/02 06:15:34;;;;;;;40.72;12.20;;;4.20;94.80;;;;;;4963211;28;20066;-87
2021/03/02 06:18:16;;;;;;;24.20;11.63;;;4.20;94.90;;;;;;4954785;28;20133;-87
2021/03/02 06:20:42;;;;;;;22.43;10.23;;;4.30;94.90;;;;;;5044576;28;20413;-87
2021/03/02 06:23:29;;;;;;;37.95;11.93;;;4.30;95.00;;;;;;4962145;28;20031;-87
2021/03/02 06:26:15;;;;;;;41.53;12.25;;;4.30;94.90;;;;;;4954139;28;20043;-86
2021/03/02 06:28:49;;;;;;;17.35;10.15;;;4.30;94.90;;;;;;4987545;28;20130;-87
2021/03/02 06:31:41;;;;;;;29.20;10.63;;;4.30;94.80;;;;;;4964885;28;20130;-86
2021/03/02 06:34:15;;;;;;;32.22;11.75;;;4.30;94.80;;;;;;4970757;28;20035;-87
2021/03/02 06:37:02;;;;;;;56.03;11.32;;;4.30;94.90;;;;;;4986133;28;20047;-87
2021/03/02 06:39:31;;;;;;;28.75;10.93;;;4.20;94.90;;;;;;4954489;28;20043;-87
2021/03/02 06:42:16;;;;;;;22.42;10.05;;;4.30;94.90;;;;;;4955415;28;20470;-87
2021/03/02 06:44:47;;;;;;;20.80;11.00;;;4.30;94.90;;;;;;4954967;28;20118;-85
2021/03/02 06:47:14;;;;;;;37.88;11.88;;;4.20;94.90;;;;;;4954715;28;20043;-87
2021/03/02 06:49:42;;;;;;;31.88;12.27;;;4.30;94.80;;;;;;4955352;28;20428;-86
2021/03/02 06:52:12;;;;;;;19.33;10.32;;;4.20;94.90;;;;;;4954722;28;20043;-87
2021/03/02 06:54:38;;;;;;;20.60;11.15;;;4.30;95.00;;;;;;4955627;28;20042;-88
2021/03/02 06:57:04;;;;;;;28.77;11.32;;;4.30;94.90;;;;;;5047990;28;20409;-88
2021/03/02 06:59:29;;;;;;;27.15;11.02;;;4.30;94.80;;;;;;4953353;29;20366;-87
2021/03/02 07:01:56;;;;;;;37.08;11.00;;;4.30;94.90;;;;;;4954086;29;20035;-87
2021/03/02 07:04:22;;;;;;;30.00;10.55;;;4.30;94.80;;;;;;5050593;28;20071;-88
2021/03/02 07:06:54;;;;;;;30.58;12.20;;;4.30;94.90;;;;;;4954067;28;20123;-88
2021/03/02 07:09:19;;;;;;;22.75;11.02;;;4.30;94.90;;;;;;4952902;28;20168;-88
2021/03/02 07:11:46;;;;;;;26.27;10.60;;;4.40;94.90;;;;;;4940453;28;20141;-88
2021/03/02 07:14:13;;;;;;;22.85;10.98;;;4.40;94.80;;;;;;4953512;28;20181;-88
2021/03/02 07:16:41;;;;;;;26.50;12.32;;;4.40;94.70;;;;;;4953598;28;20039;-87
2021/03/02 07:19:09;;;;;;;34.35;10.45;;;4.40;94.60;;;;;;4954641;28;20043;-88
2021/03/02 07:21:37;;;;;;;30.05;10.52;;;4.40;94.40;;;;;;4954571;28;20328;-87
2021/03/02 07:24:04;;;;;;;30.15;10.07;;;4.40;94.20;;;;;;4954299;28;20039;-88
2021/03/02 07:26:32;;;;;;;25.15;9.85;;;4.40;94.30;;;;;;4954204;28;20046;-87
2021/03/02 07:28:58;;;;;;;22.60;9.75;;;4.40;94.30;;;;;;4983506;28;20131;-88
2021/03/02 07:31:23;;;;;;;30.98;10.82;;;4.40;94.40;;;;;;4954286;28;20268;-88
2021/03/02 07:33:50;;;;;;;19.80;9.95;;;4.50;94.40;;;;;;4954790;28;20414;-88
2021/03/02 07:36:16;;;;;;;25.77;11.38;;;4.50;94.20;;;;;;4955392;28;20043;-88
2021/03/02 07:38:41;;;;;;;24.20;10.30;;;4.60;94.10;;;;;;4955082;28;20404;-88
2021/03/02 07:41:07;;;;;;;28.33;12.18;;;4.60;93.90;;;;;;4959848;28;20072;-88
2021/03/02 07:43:34;;;;;;;27.83;11.93;;;4.50;93.90;;;;;;4968720;28;20042;-87
2021/03/02 07:46:21;;;;;;;19.50;11.23;;;4.60;94.10;;;;;;4954742;28;20046;-88
2021/03/02 07:48:47;;;;;;;20.52;11.25;;;4.60;94.00;;;;;;4942078;28;20385;-88
2021/03/02 07:51:24;;;;;;;28.33;11.07;;;4.60;93.80;;;;;;4962117;28;20051;-88
2021/03/02 07:53:51;;;;;;;29.75;12.30;;;4.60;93.60;;;;;;4965555;28;20062;-88
2021/03/02 07:56:20;;;;;;;23.70;11.10;;;4.60;93.70;;;;;;4971618;28;20043;-88
2021/03/02 07:59:04;;;;;;;29.20;11.65;;;4.60;94.00;;;;;;4957468;28;20076;-88
2021/03/02 08:01:30;;;;;;;27.13;11.02;;;4.70;94.00;;;;;;4945299;28;20054;-87
2021/03/02 08:04:25;;;;;;;21.85;11.68;;;4.70;93.80;;;;;;5075498;28;20037;-87
2021/03/02 08:06:50;;;;;;;21.85;11.77;;;4.70;93.90;;;;;;5034643;28;20032;-86
2021/03/02 08:09:25;;;;;;;20.15;12.00;;;4.80;94.00;;;;;;5034578;28;20058;-86
2021/03/02 08:11:52;;;;;;;20.48;11.77;;;4.80;94.10;;;;;;4935264;28;20047;-87
2021/03/02 08:14:17;;;;;;;21.58;12.68;;;4.90;94.20;;;;;;4963790;28;20045;-88
2021/03/02 08:17:05;;;;;;;24.73;12.55;;;5.00;94.10;;;;;;4959769;28;20313;-89
2021/03/02 08:19:34;;;;;;;24.17;13.90;;;5.00;93.70;;;;;;4966604;28;20066;-88
2021/03/02 08:22:25;;;;;;;26.13;11.52;;;5.00;93.70;;;;;;4961631;28;20062;-89
2021/03/02 08:24:54;;;;;;;38.15;13.90;;;5.10;93.80;;;;;;4967465;28;20105;-87
2021/03/02 08:27:41;;;;;;;26.35;13.93;;;5.10;93.70;;;;;;4947713;28;20054;-87
2021/03/02 08:30:23;;;;;;;26.42;13.43;;;5.20;93.60;;;;;;4952067;28;20078;-87
2021/03/02 08:32:49;;;;;;;26.08;14.07;;;5.20;93.90;;;;;;4952251;29;20077;-85
2021/03/02 08:35:27;;;;;;;35.50;12.55;;;5.30;93.80;;;;;;4941120;28;20074;-87
2021/03/02 08:38:02;;;;;;;26.10;13.88;;;5.40;93.30;;;;;;4955954;29;20408;-90
2021/03/02 08:40:30;;;;;;;24.40;13.40;;;5.40;93.10;;;;;;4938522;28;20043;-88
2021/03/02 08:43:11;;;;;;;24.33;12.68;;;5.40;93.30;;;;;;5045332;28;20047;-86
2021/03/02 08:45:38;;;;;;;28.90;12.93;;;5.50;93.30;;;;;;4942290;28;20046;-88
2021/03/02 08:48:33;;;;;;;25.38;13.00;;;5.60;93.20;;;;;;4943519;28;20480;-88
2021/03/02 08:51:08;;;;;;;21.75;11.27;;;5.70;92.90;;;;;;4949799;28;20146;-88
2021/03/02 08:53:41;;;;;;;22.58;13.40;;;5.70;93.00;;;;;;4938035;28;20043;-89
2021/03/02 08:56:07;;;;;;;24.73;13.82;;;5.80;93.00;;;;;;4936852;28;20328;-87
2021/03/02 08:58:36;;;;;;;22.30;13.50;;;5.80;92.90;;;;;;4954814;28;20397;-89
2021/03/02 09:01:13;;;;;;;22.40;12.48;;;5.90;92.90;;;;;;4947192;29;20176;-89
2021/03/02 09:03:44;;;;;;;23.83;13.63;;;6.00;92.40;;;;;;4955833;28;20046;-88
2021/03/02 09:06:16;;;;;;;22.48;12.82;;;6.00;92.60;;;;;;4956555;29;20039;-87
2021/03/02 09:08:54;;;;;;;18.48;10.75;;;6.10;92.60;;;;;;5043193;28;20332;-88
2021/03/02 09:11:23;;;;;;;25.27;14.20;;;6.20;92.70;;;;;;4964586;28;20121;-88
2021/03/02 09:13:49;;;;;;;22.15;12.52;;;6.30;92.60;;;;;;4955471;28;20032;-88
2021/03/02 09:16:22;;;;;;;26.38;13.80;;;6.30;92.40;;;;;;4972226;28;20482;-88
2021/03/02 09:19:03;;;;;;;25.65;13.88;;;6.30;92.50;;;;;;4975603;28;20051;-88
2021/03/02 09:21:29;;;;;;;24.15;12.38;;;6.30;92.30;;;;;;4941407;28;20040;-88
2021/03/02 09:23:55;;;;;;;20.77;12.48;;;6.30;91.70;;;;;;5050095;28;20089;-88
2021/03/02 09:26:22;;;;;;;20.85;11.15;;;6.40;91.80;;;;;;4973112;28;20077;-87
2021/03/02 09:28:52;;;;;;;22.85;13.02;;;6.40;91.50;;;;;;4972536;28;20043;-88
2021/03/02 09:31:18;;;;;;;19.02;11.65;;;6.50;91.60;;;;;;4986896;28;20073;-85
2021/03/02 09:33:44;;;;;;;19.45;11.75;;;6.60;91.70;;;;;;4967281;28;20035;-86
2021/03/02 09:36:10;;;;;;;20.98;12.80;;;6.60;91.60;;;;;;4962602;28;20139;-88
2021/03/02 09:38:35;;;;;;;20.95;12.00;;;6.70;91.60;;;;;;4990163;28;20134;-89
2021/03/02 09:41:01;;;;;;;20.48;12.10;;;6.80;91.30;;;;;;4974375;28;20108;-90
2021/03/02 09:43:39;;;;;;;22.52;13.10;;;6.80;91.20;;;;;;4970679;28;20286;-88
2021/03/02 09:46:06;;;;;;;23.60;13.30;;;6.90;91.10;;;;;;4959298;28;20047;-88
2021/03/02 09:48:48;;;;;;;20.83;11.52;;;7.00;91.30;;;;;;4960382;28;20269;-89
2021/03/02 09:51:33;;;;;;;21.15;11.70;;;7.10;91.00;;;;;;4958521;28;20035;-89
2021/03/02 09:54:16;;;;;;;19.13;11.65;;;7.10;90.50;;;;;;4987072;28;20046;-89
2021/03/02 09:56:46;;;;;;;;;;;7.20;90.00;;;;;;4967701;28;20444;-89
2021/03/02 09:59:20;;;;;;;20.85;11.50;;;7.30;89.60;;;;;;4955142;28;20012;-89
2021/03/02 10:01:46;;;;;;;20.02;11.75;;;7.30;90.00;;;;;;4954595;28;20053;-88
2021/03/02 10:04:11;;;;;;;20.58;11.00;;;7.30;90.30;;;;;;4959885;28;20031;-88
2021/03/02 10:06:37;;;;;;;18.33;11.25;;;7.40;90.20;;;;;;4966377;28;20035;-87
2021/03/02 10:09:02;;;;;;;23.40;12.38;;;7.50;90.20;;;;;;4997189;28;20050;-89
2021/03/02 10:11:29;;;;;;;23.65;12.18;;;7.60;90.10;;;;;;4972658;28;20051;-89
2021/03/02 10:14:05;;;;;;;21.50;12.38;;;7.60;89.20;;;;;;4962426;28;20046;-89
2021/03/02 10:16:38;;;;;;;20.27;11.98;;;7.80;89.20;;;;;;4955353;28;20302;-88
2021/03/02 10:19:14;;;;;;;23.70;12.27;;;7.90;89.80;;;;;;4991074;28;20070;-89
2021/03/02 10:21:42;;;;;;;17.58;10.63;;;8.00;88.90;;;;;;5056367;28;20517;-89
2021/03/02 10:24:15;;;;;;;18.30;10.88;;;8.10;88.40;;;;;;5000859;28;20371;-89
2021/03/02 10:26:40;;;;;;;18.85;12.07;;;8.20;86.40;;;;;;4973147;28;20603;-91
2021/03/02 10:29:07;;;;;;;24.48;13.73;;;8.30;86.20;;;;;;4975338;28;20085;-91
2021/03/02 10:31:34;;;;;;;17.75;12.50;;;8.30;88.00;;;;;;4973450;28;20430;-90
2021/03/02 10:34:01;;;;;;;20.50;12.02;;;8.30;86.70;;;;;;5007424;28;20054;-92
2021/03/02 10:36:35;;;;;;;22.00;12.77;;;8.40;86.90;;;;;;5062979;28;20050;-92
2021/03/02 10:39:06;;;;;;;21.27;13.32;;;8.50;86.70;;;;;;4969377;28;20396;-91
2021/03/02 10:41:32;;;;;;;16.92;10.98;;;8.60;85.50;;;;;;4976289;28;20092;-93
2021/03/02 10:43:59;;;;;;;19.80;11.65;;;8.70;85.70;;;;;;4971084;28;20377;-92
2021/03/02 10:46:26;;;;;;;18.95;12.10;;;8.70;85.20;;;;;;4937545;29;20142;-91
2021/03/02 10:48:52;;;;;;;19.20;12.35;;;8.80;85.80;;;;;;4936270;28;20400;-90
2021/03/02 10:51:18;;;;;;;24.25;12.40;;;8.70;85.10;;;;;;4943016;28;20043;-90
2021/03/02 10:53:46;;;;;;;23.63;13.82;;;8.60;85.90;;;;;;5057503;28;20047;-91
2021/03/02 10:56:12;;;;;;;20.45;13.20;;;8.50;86.90;;;;;;4989077;28;20050;-92
2021/03/02 10:58:38;;;;;;;19.20;12.95;;;8.60;87.30;;;;;;4988956;28;20035;-92
2021/03/02 11:01:04;;;;;;;22.30;13.07;;;8.70;87.50;;;;;;4974863;28;20097;-92
2021/03/02 11:03:29;;;;;;;18.45;12.35;;;8.80;86.70;;;;;;4975568;28;20401;-91
2021/03/02 11:05:55;;;;;;;19.85;12.63;;;9.00;86.00;;;;;;4968922;28;20043;-94
2021/03/02 11:08:21;;;;;;;20.38;12.45;;;9.20;85.80;;;;;;4955519;28;20126;-92
2021/03/02 11:10:48;;;;;;;22.95;13.38;;;9.30;84.10;;;;;;4964873;28;20130;-91
2021/03/02 11:13:14;;;;;;;23.25;14.05;;;9.30;84.20;;;;;;4969574;28;20046;-90
2021/03/02 11:15:40;;;;;;;26.75;13.57;;;9.30;84.60;;;;;;4959418;28;20043;-91
2021/03/02 11:18:07;;;;;;;23.63;12.98;;;9.20;84.20;;;;;;4972229;28;20039;-92
2021/03/02 11:20:34;;;;;;;23.60;14.40;;;9.20;84.50;;;;;;5006575;28;20335;-91
2021/03/02 11:22:59;;;;;;;22.75;13.43;;;9.20;85.00;;;;;;5007336;28;20074;-92
2021/03/02 11:25:25;;;;;;;22.48;13.88;;;9.20;84.70;;;;;;5006449;28;20059;-92
2021/03/02 11:27:51;;;;;;;22.33;13.52;;;9.30;84.20;;;;;;4973670;28;20042;-91
2021/03/02 11:30:17;;;;;;;25.55;13.48;;;9.30;84.00;;;;;;4957865;28;20042;-91
2021/03/02 11:32:43;;;;;;;19.00;12.50;;;9.20;85.00;;;;;;4987901;28;20044;-91
2021/03/02 11:35:09;;;;;;;21.77;14.23;;;9.30;85.90;;;;;;5056057;28;20045;-90
2021/03/02 11:37:38;;;;;;;23.17;14.68;;;9.30;84.00;;;;;;4986780;28;20078;-90
2021/03/02 11:40:07;;;;;;;22.85;14.43;;;9.40;84.50;;;;;;4986813;28;20047;-91
2021/03/02 11:42:33;;;;;;;22.45;13.57;;;9.50;85.80;;;;;;4986940;28;20066;-90
2021/03/02 11:44:59;;;;;;;27.65;14.75;;;9.70;83.90;;;;;;4987765;28;20041;-90
2021/03/02 11:47:25;;;;;;;24.10;13.68;;;9.80;83.80;;;;;;4986977;28;20032;-91
2021/03/02 11:49:53;;;;;;;21.73;13.77;;;10.00;82.30;;;;;;4986410;28;20043;-91
2021/03/02 11:52:20;;;;;;;23.25;13.85;;;10.10;82.10;;;;;;4955926;28;20417;-91
2021/03/02 11:54:46;;;;;;;27.00;14.13;;;10.20;81.50;;;;;;4989749;28;20047;-91
2021/03/02 11:57:11;;;;;;;21.15;13.52;;;10.30;82.30;;;;;;4991440;28;20073;-90
2021/03/02 11:59:37;;;;;;;21.50;13.65;;;10.30;80.90;;;;;;4991878;28;20054;-91
2021/03/02 12:02:02;;;;;;;22.63;14.43;;;10.40;81.90;;;;;;4991282;28;20393;-93
2021/03/02 12:04:28;;;;;;;21.25;13.88;;;10.60;80.90;;;;;;4993989;28;20035;-92
2021/03/02 12:07:03;;;;;;;20.65;12.75;;;10.70;80.60;;;;;;5005396;28;20039;-92
2021/03/02 12:09:30;;;;;;;21.63;13.48;;;10.80;79.70;;;;;;4958281;28;20051;-92
2021/03/02 12:12:19;;;;;;;21.20;13.85;;;10.90;79.60;;;;;;4958807;28;20043;-93
2021/03/02 14:01:30;;;;;;;17.40;10.80;;;12.70;73.90;;;;;;4882829;29;20059;-93
2021/03/02 14:11:32;;;;;;;;;;;;;;;;;;;;;
2021/03/02 14:14:24;;;;;;;16.40;10.88;;;12.90;73.50;;;;;;4833404;28;20036;-92
2021/03/02 14:16:55;;;;;;;17.20;10.88;;;13.00;73.80;;;;;;4924823;28;20039;-91
2021/03/02 14:19:26;;;;;;;15.27;10.52;;;12.90;72.70;;;;;;4955960;28;20053;-91
2021/03/02 14:21:52;;;;;;;16.05;11.05;;;12.80;72.80;;;;;;4955829;28;20401;-90
2021/03/02 14:24:18;;;;;;;17.67;11.10;;;12.80;73.20;;;;;;4955708;28;20059;-90
2021/03/02 14:26:44;;;;;;;13.50;10.13;;;12.60;73.90;;;;;;4955225;28;20050;-90
2021/03/02 14:29:12;;;;;;;15.35;9.98;;;12.60;73.90;;;;;;5050620;28;20046;-90
2021/03/02 14:31:39;;;;;;;14.38;9.80;;;12.60;73.30;;;;;;4963311;28;20047;-90
2021/03/02 14:34:05;;;;;;;15.75;9.82;;;12.60;74.00;;;;;;5077356;28;20331;-91
2021/03/02 14:36:31;;;;;;;21.15;11.32;;;12.70;74.00;;;;;;4976502;28;20035;-90
2021/03/02 14:38:56;;;;;;;15.25;9.77;;;12.80;73.40;;;;;;4976384;28;20400;-89
2021/03/02 14:41:30;;;;;;;17.17;10.20;;;12.90;72.40;;;;;;5077398;28;20043;-90